Airfield :
LOGIN :

Register | Disclaimer

   EN    FR    IT 

 










Legend :    VFR   Marginal VFR   IFR   Intensive IFR   Very Intensive IFR
Visi :
Ceiling :
>= 8 km
>= 3000ft
5 to 8 km
1000 to 3000 ft
1500m to 5 km
500 to 1000 ft
800 to 1500m
200 to 500 ft
< 800m
< 200 ft
Symbols :   Thunderstorms  Fog  Heavy snow  Heavy precipitations  Wind > 20 kt
SIGMETs :     Misc.  Thunderstorms  Icing  Turbulence  Mountain Waves  Volcanic Ashes







- Airport Elevation : 160 ft
- IATA code : LRT
- Download approach charts


LFRH - Lorient Lann Bihoue

CURRENT METAR :
  • 221630Z AUTO 26006KT 5000 BR NSC 13/09 Q1028 NOSIG

EXPIRED METARs :
  • 221600Z AUTO 23006KT 200V280 5000 HZ NSC 14/08 Q1028 NOSIG
  • 221530Z AUTO 24006KT 190V270 5000 HZ NSC 14/08 Q1028 NOSIG
  • 221500Z AUTO 25008KT 4900 HZ NSC 14/08 Q1028 NOSIG
  • 221430Z AUTO 25007KT 5000 HZ NSC 15/08 Q1028 NOSIG
  • 221400Z AUTO 26008KT 4700 HZ NSC 15/08 Q1028 BECMG 9999 NSW

TAF AMD TAF LFRH
Valid from the 22 at 14:00 until the 23 at 12:00 UTC


221449Z 2214/2312 VRB05KT CAVOK
TEMPO 2214/2219 4500 HZ
BECMG 2219/2221 2000 BR
PROB30
TEMPO 2221/2306 0400 BCFG
BECMG 2222/2224 04005KT
BECMG 2306/2308 9999 NSW
No reported NOTAMs for that airfield.



MET'MAP, your aeronautical weather chart ! - Copyright ORBIFLY December 2007 - Disclaimer

ORBIFLY MET'MAP TEAM :

Programming & Development : Alexandra Zaïnal
Concept & Development : Baudouin d'Aumeries
Co-Development & Prog : Marc-Olivier Méhu
Technical & hardware support : Manuel Goepfert

Contact : metmap@orbifly.com




SOURCES & CREDITS :

   NOAA